Time;durP1;ratioP1;P1;durP2;ratioP2;P2;SDS_P1;SDS_P2;PMS_P1;PMS_P2;Temp;Humidity;BMP_temperature;BMP_pressure;BME280_temperature;BME280_humidity;BME280_pressure;Samples;Min_cycle;Max_cycle;Signal;HPM_P1;HPM_P2
2024/01/16 00:00:53;;;;;;;1.02;0.90;;;;;;;-0.66;100.00;101012.22;6087549;19;20034;-71
2024/01/16 00:03:00;;;;;;;2.65;1.20;;;;;;;-0.60;100.00;101012.28;6086547;19;20066;-74
2024/01/16 00:05:05;;;;;;;4.93;1.75;;;;;;;-0.62;100.00;101019.16;6085928;19;20023;-71
2024/01/16 00:07:13;;;;;;;0.70;0.70;;;;;;;-0.60;100.00;101012.28;6086169;19;20065;-71
2024/01/16 00:09:18;;;;;;;0.85;0.82;;;;;;;-0.62;100.00;101021.72;6086707;19;20014;-72
2024/01/16 00:11:27;;;;;;;1.67;1.08;;;;;;;-0.40;100.00;101033.06;6084630;19;20555;-72
2024/01/16 00:13:32;;;;;;;7.55;1.92;;;;;;;-0.18;100.00;101023.78;6085314;19;20002;-72
2024/01/16 00:15:38;;;;;;;3.28;1.00;;;;;;;0.00;100.00;101023.03;6088493;19;20115;-73
2024/01/16 00:17:43;;;;;;;2.85;1.55;;;;;;;0.14;100.00;101017.94;6085977;19;20613;-71
2024/01/16 00:19:48;;;;;;;9.73;1.58;;;;;;;0.25;100.00;101012.81;6084728;19;20006;-71
2024/01/16 00:21:53;;;;;;;4.80;1.50;;;;;;;0.34;100.00;101007.66;6085943;19;20066;-71
2024/01/16 00:24:00;;;;;;;1.35;0.82;;;;;;;0.34;100.00;101021.47;6082209;19;20018;-73
2024/01/16 00:26:05;;;;;;;7.75;1.33;;;;;;;0.32;100.00;101018.03;6087363;19;20459;-73
2024/01/16 00:28:10;;;;;;;4.13;1.75;;;;;;;0.32;100.00;101015.44;6086817;19;20014;-74
2024/01/16 00:30:16;;;;;;;1.35;1.08;;;;;;;0.25;100.00;101018.84;6086643;19;20258;-72
2024/01/16 00:32:22;;;;;;;0.65;0.65;;;;;;;0.21;100.00;101020.56;6088050;19;20340;-72
2024/01/16 00:34:27;;;;;;;2.35;1.02;;;;;;;0.19;100.00;101029.16;6088620;19;20462;-71
2024/01/16 00:36:29;;;;;;;5.53;0.93;;;;;;;0.16;100.00;101023.97;6086163;19;20438;-71
2024/01/16 00:38:35;;;;;;;1.73;1.33;;;;;;;0.15;100.00;101020.50;6080643;19;20014;-72
2024/01/16 00:40:43;;;;;;;0.80;0.80;;;;;;;0.20;100.00;101030.88;6087380;19;20007;-71
2024/01/16 00:42:48;;;;;;;2.05;0.73;;;;;;;0.17;100.00;101026.56;6084242;19;20136;-72
2024/01/16 00:44:53;;;;;;;0.90;0.90;;;;;;;0.25;100.00;101018.00;6084613;19;20018;-72
2024/01/16 00:47:01;;;;;;;2.35;0.80;;;;;;;0.20;100.00;101029.16;6087556;19;20014;-71
2024/01/16 00:49:07;;;;;;;1.45;0.88;;;;;;;0.20;100.00;101017.94;6086173;19;20538;-72
2024/01/16 00:51:12;;;;;;;0.80;0.80;;;;;;;0.22;100.00;101013.66;6085335;19;20014;-72
2024/01/16 00:53:19;;;;;;;1.75;0.80;;;;;;;0.24;100.00;101019.72;6082531;19;20011;-73
2024/01/16 00:55:25;;;;;;;0.93;0.88;;;;;;;0.16;100.00;101029.16;6085579;19;20313;-72
2024/01/16 00:57:33;;;;;;;0.60;0.60;;;;;;;0.16;100.00;101021.41;6083991;19;20011;-72
2024/01/16 00:59:39;;;;;;;3.95;1.30;;;;;;;0.13;100.00;101018.78;6087245;19;20006;-72
2024/01/16 01:01:44;;;;;;;1.98;1.75;;;;;;;-0.03;100.00;101030.75;6087650;19;20013;-71
2024/01/16 01:03:49;;;;;;;0.75;0.75;;;;;;;-0.03;100.00;101026.47;6087305;19;20074;-71
2024/01/16 01:05:55;;;;;;;3.83;1.15;;;;;;;-0.05;100.00;101030.75;6088502;19;20039;-71
2024/01/16 01:08:00;;;;;;;1.25;0.88;;;;;;;-0.17;100.00;101030.66;6083099;19;20353;-71
2024/01/16 01:10:07;;;;;;;1.88;1.40;;;;;;;-0.23;100.00;101025.47;6084953;19;20003;-71
2024/01/16 01:12:12;;;;;;;0.80;0.80;;;;;;;-0.25;100.00;101032.34;6085051;19;20023;-71
2024/01/16 01:14:19;;;;;;;0.70;0.70;;;;;;;-0.32;100.00;101033.13;6086080;19;20460;-71
2024/01/16 01:16:25;;;;;;;4.35;1.58;;;;;;;-0.35;100.00;101033.97;6087060;19;20006;-72
2024/01/16 01:18:31;;;;;;;1.10;1.02;;;;;;;-0.40;100.00;101037.38;6085406;19;20039;-72
2024/01/16 01:20:36;;;;;;;2.67;1.77;;;;;;;-0.46;100.00;101041.66;6087572;19;20011;-71
2024/01/16 01:22:41;;;;;;;5.25;1.17;;;;;;;-0.48;100.00;101043.34;6087073;19;20002;-71
2024/01/16 01:24:46;;;;;;;0.80;0.80;;;;;;;-0.50;100.00;101037.31;6083944;19;20020;-72
2024/01/16 01:26:51;;;;;;;1.05;0.85;;;;;;;-0.48;100.00;101042.47;6086192;19;20009;-72
2024/01/16 01:28:56;;;;;;;1.02;1.02;;;;;;;-0.47;100.00;101042.50;6085828;19;20039;-71
2024/01/16 01:31:03;;;;;;;0.80;0.80;;;;;;;-0.40;100.00;101055.47;6086763;19;20033;-72
2024/01/16 01:33:08;;;;;;;1.05;0.95;;;;;;;-0.35;100.00;101049.47;6080530;19;20006;-71
2024/01/16 01:35:14;;;;;;;2.58;1.27;;;;;;;-0.30;100.00;101054.69;6083857;19;20015;-71
2024/01/16 01:37:16;;;;;;;0.95;0.85;;;;;;;-0.20;100.00;101053.03;6085046;19;20030;-71
2024/01/16 01:39:22;;;;;;;1.17;1.17;;;;;;;-0.09;100.00;101060.00;6078360;19;20052;-71
2024/01/16 01:41:27;;;;;;;2.78;0.98;;;;;;;-0.17;100.00;101056.50;6083907;19;20018;-71
2024/01/16 01:43:32;;;;;;;0.80;0.80;;;;;;;-0.20;100.00;101056.47;6082742;19;20018;-71
2024/01/16 01:45:40;;;;;;;1.73;0.90;;;;;;;-0.22;100.00;101053.00;6081324;19;20010;-72
2024/01/16 01:47:48;;;;;;;3.92;0.90;;;;;;;-0.17;100.00;101056.50;6083655;19;20011;-71
2024/01/16 01:49:55;;;;;;;2.90;1.38;;;;;;;-0.15;100.00;101062.53;6084493;19;20018;-71
2024/01/16 01:52:00;;;;;;;1.25;1.13;;;;;;;-0.19;100.00;101055.59;6084924;19;20018;-71
2024/01/16 01:54:05;;;;;;;0.80;0.80;;;;;;;-0.24;100.00;101063.34;6082675;19;20015;-73
2024/01/16 01:56:11;;;;;;;1.05;0.73;;;;;;;-0.29;100.00;101058.97;6083061;19;20003;-72
2024/01/16 01:58:18;;;;;;;5.43;1.00;;;;;;;-0.23;100.00;101054.72;6084232;19;20472;-73
2024/01/16 02:00:23;;;;;;;3.08;1.00;;;;;;;-0.25;100.00;101048.69;6080416;19;20086;-72
2024/01/16 02:02:30;;;;;;;2.15;1.33;;;;;;;-0.26;100.00;101040.94;6083871;19;20011;-72
2024/01/16 02:04:39;;;;;;;1.67;0.90;;;;;;;-0.22;100.00;101042.69;6083755;19;20351;-71
2024/01/16 02:06:44;;;;;;;4.03;0.90;;;;;;;-0.27;100.00;101045.22;6085095;19;20014;-71
2024/01/16 02:08:49;;;;;;;0.73;0.73;;;;;;;-0.29;100.00;101053.81;6082622;19;20853;-71
2024/01/16 02:10:55;;;;;;;2.40;0.88;;;;;;;-0.28;100.00;101058.13;6083066;19;20039;-71
2024/01/16 02:13:00;;;;;;;0.50;0.50;;;;;;;-0.29;100.00;101056.41;6084163;19;20472;-71
2024/01/16 02:15:08;;;;;;;1.10;1.00;;;;;;;-0.30;100.00;101060.69;6079563;19;20042;-72
2024/01/16 02:17:13;;;;;;;4.40;1.40;;;;;;;-0.28;100.00;101071.91;6076030;19;20665;-72
2024/01/16 02:19:18;;;;;;;1.88;1.23;;;;;;;-0.30;100.00;101067.59;6080485;19;20063;-71
2024/01/16 02:21:28;;;;;;;1.02;0.88;;;;;;;-0.34;100.00;101066.72;6082187;19;20579;-71
2024/01/16 02:23:36;;;;;;;1.50;1.40;;;;;;;-0.37;100.00;101066.69;6083836;19;20532;-72
2024/01/16 02:25:41;;;;;;;1.15;0.95;;;;;;;-0.40;100.00;101065.78;6084560;19;20014;-72
2024/01/16 02:27:47;;;;;;;1.45;1.35;;;;;;;-0.36;100.00;101065.81;6084753;19;20102;-72
2024/01/16 02:29:52;;;;;;;0.80;0.80;;;;;;;-0.41;100.00;101056.31;6083205;19;20426;-72
2024/01/16 02:31:57;;;;;;;1.30;1.10;;;;;;;-0.43;100.00;101063.19;6075878;19;20009;-72
2024/01/16 02:34:03;;;;;;;1.20;0.90;;;;;;;-0.42;100.00;101062.31;6083211;19;20022;-72
2024/01/16 02:36:06;;;;;;;2.45;1.38;;;;;;;-0.43;100.00;101068.34;6081880;19;20404;-73
2024/01/16 02:38:11;;;;;;;2.47;1.60;;;;;;;-0.41;100.00;101066.66;6087912;19;20007;-72
2024/01/16 02:40:19;;;;;;;2.30;1.00;;;;;;;-0.39;100.00;101062.38;6088486;19;20007;-71
2024/01/16 02:42:25;;;;;;;4.22;1.20;;;;;;;-0.39;100.00;101058.06;6087751;19;20491;-71
2024/01/16 02:44:30;;;;;;;0.88;0.88;;;;;;;-0.29;100.00;101052.13;6087977;19;20011;-71
2024/01/16 02:46:35;;;;;;;3.35;0.98;;;;;;;-0.30;100.00;101036.59;6088885;19;19998;-72
2024/01/16 02:48:42;;;;;;;0.90;0.88;;;;;;;-0.35;100.00;101049.47;6084757;19;20078;-72
2024/01/16 02:50:48;;;;;;;2.65;0.80;;;;;;;-0.31;100.00;101029.72;6089735;19;20863;-72
2024/01/16 02:52:53;;;;;;;1.88;1.05;;;;;;;-0.36;100.00;101031.41;6085791;19;20011;-72
2024/01/16 02:55:01;;;;;;;1.80;0.82;;;;;;;-0.40;100.00;101035.66;6086993;19;20006;-72
2024/01/16 02:57:09;;;;;;;2.30;0.95;;;;;;;-0.41;100.00;101035.66;6089476;19;20010;-71
2024/01/16 02:59:16;;;;;;;1.80;1.13;;;;;;;-0.39;100.00;101049.47;6088473;19;20023;-72
2024/01/16 03:01:22;;;;;;;1.02;1.00;;;;;;;-0.38;100.00;101039.13;6089184;19;20007;-71
2024/01/16 03:03:27;;;;;;;1.95;1.20;;;;;;;-0.39;100.00;101041.72;6087944;19;20483;-71
2024/01/16 03:05:32;;;;;;;1.27;0.80;;;;;;;-0.35;100.00;101028.81;6088173;19;20010;-72
2024/01/16 03:07:37;;;;;;;3.22;1.25;;;;;;;-0.26;100.00;101033.19;6084488;19;20011;-71
2024/01/16 03:09:42;;;;;;;2.00;1.25;;;;;;;-0.20;100.00;101040.97;6086696;19;20010;-72
2024/01/16 03:11:47;;;;;;;2.58;1.40;;;;;;;-0.18;100.00;101035.84;6081328;19;20010;-72
2024/01/16 03:13:55;;;;;;;0.70;0.70;;;;;;;-0.15;100.00;101028.97;6089915;19;20150;-71
2024/01/16 03:16:00;;;;;;;1.75;1.52;;;;;;;-0.18;100.00;101021.19;6086236;19;20006;-72
2024/01/16 03:18:03;;;;;;;1.05;1.05;;;;;;;-0.15;100.00;101018.63;6080035;19;20086;-71
2024/01/16 03:20:10;;;;;;;1.40;1.30;;;;;;;-0.19;100.00;101021.19;6087254;19;20018;-72
2024/01/16 03:22:15;;;;;;;6.30;2.05;;;;;;;-0.22;100.00;101014.28;6087912;19;20525;-72
2024/01/16 03:24:20;;;;;;;0.95;0.95;;;;;;;-0.26;100.00;101017.72;6088036;19;20038;-72
2024/01/16 03:26:25;;;;;;;4.80;1.63;;;;;;;-0.26;100.00;101010.81;6088211;19;20378;-72
2024/01/16 03:28:30;;;;;;;1.17;1.17;;;;;;;-0.28;100.00;101006.50;6086983;19;20590;-73
2024/01/16 03:30:38;;;;;;;5.35;1.67;;;;;;;-0.27;100.00;101014.22;6083934;19;20090;-71
2024/01/16 03:32:43;;;;;;;2.95;1.52;;;;;;;-0.27;100.00;101010.78;6089628;19;20024;-71
2024/01/16 03:34:48;;;;;;;1.15;1.05;;;;;;;-0.29;100.00;101009.91;6088360;19;20423;-71
2024/01/16 03:36:54;;;;;;;2.67;1.25;;;;;;;-0.31;100.00;101007.34;6089372;19;20010;-71
2024/01/16 03:38:56;;;;;;;0.70;0.70;;;;;;;-0.29;100.00;101020.25;6085834;19;20021;-71
2024/01/16 03:41:01;;;;;;;1.20;1.10;;;;;;;-0.40;100.00;101015.00;6088897;19;20030;-72
2024/01/16 03:43:07;;;;;;;0.80;0.80;;;;;;;-0.36;100.00;101016.78;6088675;19;20027;-71
2024/01/16 03:45:13;;;;;;;4.47;1.73;;;;;;;-0.45;100.00;101011.53;6088514;19;20003;-73
2024/01/16 03:47:24;;;;;;;1.95;1.20;;;;;;;-0.46;100.00;101012.38;6086160;19;20090;-73
2024/01/16 03:49:30;;;;;;;2.17;1.35;;;;;;;-0.50;100.00;101023.53;6086930;19;20011;-72
2024/01/16 03:51:35;;;;;;;1.50;1.05;;;;;;;-0.46;100.00;101021.00;6090572;19;20011;-72
2024/01/16 03:53:40;;;;;;;2.05;1.00;;;;;;;-0.33;100.00;101014.22;6088553;19;20035;-72
2024/01/16 03:55:46;;;;;;;1.40;0.98;;;;;;;-0.33;100.00;101011.63;6091520;19;20034;-72
2024/01/16 03:57:50;;;;;;;1.00;1.00;;;;;;;-0.33;100.00;101019.38;6090112;19;20089;-71
2024/01/16 03:59:56;;;;;;;4.70;1.02;;;;;;;-0.39;100.00;101029.66;6085878;19;20369;-72
2024/01/16 04:01:58;;;;;;;1.65;1.05;;;;;;;-0.43;100.00;101027.91;6087339;19;20047;-71
2024/01/16 04:04:06;;;;;;;2.00;1.08;;;;;;;-0.42;100.00;101034.81;6083414;19;20022;-72
2024/01/16 04:06:19;;;;;;;0.90;0.90;;;;;;;-0.37;100.00;101037.41;6085524;19;20109;-73
2024/01/16 04:08:25;;;;;;;0.95;0.95;;;;;;;-0.39;100.00;101024.50;6083868;19;20374;-72
2024/01/16 04:10:30;;;;;;;1.02;1.02;;;;;;;-0.41;100.00;101028.78;6086614;19;20014;-72
2024/01/16 04:12:35;;;;;;;2.78;1.05;;;;;;;-0.38;100.00;101025.34;6085119;19;20364;-72
2024/01/16 04:14:40;;;;;;;2.25;1.10;;;;;;;-0.40;100.00;101019.31;6085264;19;20009;-72
2024/01/16 04:16:45;;;;;;;1.10;1.10;;;;;;;-0.42;100.00;101015.84;6086871;19;20002;-72
2024/01/16 04:18:50;;;;;;;3.35;1.50;;;;;;;-0.46;100.00;101012.38;6088724;19;20027;-72
2024/01/16 04:20:59;;;;;;;1.77;1.67;;;;;;;-0.46;100.00;101013.25;6084721;19;20007;-72
2024/01/16 04:23:06;;;;;;;2.70;1.83;;;;;;;-0.46;100.00;101007.22;6075912;19;20395;-72
2024/01/16 04:25:12;;;;;;;2.13;1.30;;;;;;;-0.45;100.00;101008.94;6085052;19;20038;-72
2024/01/16 04:27:17;;;;;;;1.10;1.10;;;;;;;-0.47;100.00;101006.38;6086755;19;20013;-72
2024/01/16 04:29:23;;;;;;;4.20;1.42;;;;;;;-0.49;100.00;101004.63;6083566;19;20380;-71
2024/01/16 04:31:28;;;;;;;1.02;1.02;;;;;;;-0.50;100.00;101001.19;6086490;19;20482;-72
2024/01/16 04:33:33;;;;;;;1.45;1.35;;;;;;;-0.50;100.00;100996.03;6085559;19;20006;-72
2024/01/16 04:35:38;;;;;;;3.00;1.33;;;;;;;-0.42;100.00;100995.19;6086951;19;20479;-73
2024/01/16 04:37:46;;;;;;;2.50;1.50;;;;;;;-0.41;100.00;100991.78;6080775;19;20006;-71
2024/01/16 04:39:51;;;;;;;2.15;1.50;;;;;;;-0.42;100.00;100990.91;6083499;19;20475;-71
2024/01/16 04:41:56;;;;;;;1.85;1.33;;;;;;;-0.46;100.00;100984.00;6084141;19;20078;-71
2024/01/16 04:44:01;;;;;;;6.15;1.90;;;;;;;-0.40;100.00;100985.75;6084999;19;20014;-71
2024/01/16 04:46:07;;;;;;;4.05;1.88;;;;;;;-0.40;100.00;100991.78;6083144;19;20074;-72
2024/01/16 04:48:12;;;;;;;3.28;2.00;;;;;;;-0.42;100.00;100992.63;6086900;19;20019;-71
2024/01/16 04:50:17;;;;;;;4.13;1.65;;;;;;;-0.43;100.00;100996.91;6088018;19;20089;-72
2024/01/16 04:52:22;;;;;;;7.22;1.67;;;;;;;-0.41;100.00;101004.69;6082408;19;20589;-75
2024/01/16 04:54:30;;;;;;;3.03;1.92;;;;;;;-0.45;100.00;100996.03;6083978;19;20006;-71
2024/01/16 04:56:35;;;;;;;1.95;1.42;;;;;;;-0.42;100.00;100998.66;6082135;19;20011;-74
2024/01/16 04:58:40;;;;;;;1.80;1.50;;;;;;;-0.45;100.00;100991.75;6085194;19;20647;-71
2024/01/16 05:00:45;;;;;;;1.77;1.63;;;;;;;-0.47;100.00;100992.59;6079562;19;20002;-71
2024/01/16 05:02:51;;;;;;;2.22;1.70;;;;;;;-0.48;100.00;100983.97;6087552;19;20003;-72
2024/01/16 05:04:57;;;;;;;5.25;2.58;;;;;;;-0.50;100.00;100980.53;6085123;19;20007;-71
2024/01/16 05:07:03;;;;;;;4.25;1.98;;;;;;;-0.47;100.00;100983.13;6080241;19;20320;-71
2024/01/16 05:09:09;;;;;;;2.65;1.77;;;;;;;-0.36;100.00;100979.75;6085697;19;20201;-71
2024/01/16 05:11:16;;;;;;;5.68;2.42;;;;;;;-0.42;100.00;100971.97;6085316;19;20498;-74
2024/01/16 05:13:21;;;;;;;2.60;1.73;;;;;;;-0.42;100.00;100971.97;6079321;19;20690;-72
2024/01/16 05:15:26;;;;;;;3.30;1.90;;;;;;;-0.41;100.00;100960.81;6083716;19;20086;-72
2024/01/16 05:17:31;;;;;;;2.30;1.52;;;;;;;-0.37;100.00;100957.38;6086600;19;20039;-72
2024/01/16 05:19:36;;;;;;;1.98;1.77;;;;;;;-0.41;100.00;100950.47;6085555;19;20304;-72
2024/01/16 05:21:43;;;;;;;6.20;2.45;;;;;;;-0.42;100.00;100956.47;6082501;19;20016;-71
2024/01/16 05:23:48;;;;;;;8.45;2.53;;;;;;;-0.45;100.00;100953.03;6080799;19;20010;-71
2024/01/16 05:25:53;;;;;;;3.30;2.05;;;;;;;-0.50;100.00;100954.72;6084489;19;20369;-72
2024/01/16 05:28:01;;;;;;;5.35;2.80;;;;;;;-0.46;100.00;100946.13;6083071;19;20007;-72
2024/01/16 05:30:07;;;;;;;4.38;2.25;;;;;;;-0.47;100.00;100944.41;6080784;19;20043;-72
2024/01/16 05:32:13;;;;;;;4.03;2.78;;;;;;;-0.49;100.00;100943.53;6079887;19;20938;-72
2024/01/16 05:34:18;;;;;;;6.32;3.28;;;;;;;-0.52;100.00;100947.81;6085173;19;20013;-73
2024/01/16 05:36:25;;;;;;;4.97;2.72;;;;;;;-0.54;100.00;100944.38;6082693;19;20035;-72
2024/01/16 05:38:31;;;;;;;2.28;1.75;;;;;;;-0.59;100.00;100938.31;6081940;19;20383;-72
2024/01/16 05:40:36;;;;;;;4.40;2.63;;;;;;;-0.59;100.00;100933.16;6086289;19;20007;-72
2024/01/16 05:42:40;;;;;;;3.53;2.42;;;;;;;-0.62;100.00;100933.13;6084742;19;20013;-73
2024/01/16 05:44:48;;;;;;;5.40;1.98;;;;;;;-0.66;100.00;100937.38;6082586;19;20011;-72
2024/01/16 05:46:51;;;;;;;3.05;2.45;;;;;;;-0.67;100.00;100933.94;6085719;19;20002;-73
2024/01/16 05:48:56;;;;;;;6.38;2.20;;;;;;;-0.64;100.00;100935.69;6085450;19;20027;-72
2024/01/16 05:51:01;;;;;;;3.47;2.47;;;;;;;-0.62;100.00;100928.81;6082007;19;20019;-72
2024/01/16 05:53:07;;;;;;;11.82;2.63;;;;;;;-0.64;100.00;100930.53;6083205;19;20003;-72
2024/01/16 05:55:12;;;;;;;3.17;2.20;;;;;;;-0.68;100.00;100924.50;6084994;19;20907;-72
2024/01/16 05:57:17;;;;;;;7.03;2.55;;;;;;;-0.70;100.00;100920.16;6082704;19;20006;-72
2024/01/16 05:59:23;;;;;;;3.03;2.10;;;;;;;-0.73;100.00;100926.16;6077897;19;20077;-72
2024/01/16 06:01:30;;;;;;;5.65;2.67;;;;;;;-0.70;100.00;100920.16;6082373;19;20390;-72
2024/01/16 06:03:36;;;;;;;5.70;3.13;;;;;;;-0.69;100.00;100921.88;6084603;19;20014;-72
2024/01/16 06:05:40;;;;;;;10.27;3.25;;;;;;;-0.68;100.00;100921.06;6082876;19;20363;-71
2024/01/16 06:07:46;;;;;;;6.45;2.65;;;;;;;-0.70;100.00;100920.16;6082690;19;20106;-72
2024/01/16 06:09:48;;;;;;;2.95;2.42;;;;;;;-0.72;100.00;100920.16;6082846;19;20009;-73
2024/01/16 06:11:53;;;;;;;6.95;3.25;;;;;;;-0.72;100.00;100917.56;6079005;19;20032;-72
2024/01/16 06:14:01;;;;;;;4.50;2.88;;;;;;;-0.77;100.00;100913.22;6078603;19;20021;-72
2024/01/16 06:16:06;;;;;;;12.27;2.80;;;;;;;-0.75;100.00;100916.69;6078316;19;20007;-72
2024/01/16 06:18:19;;;;;;;7.30;3.25;;;;;;;-0.75;100.00;100911.53;6081390;19;20007;-72
2024/01/16 06:20:28;;;;;;;7.70;1.98;;;;;;;-0.78;100.00;100921.84;6079379;19;20010;-72
2024/01/16 06:22:33;;;;;;;7.00;2.40;;;;;;;-0.77;100.00;100920.97;6080936;19;20006;-72
2024/01/16 06:24:39;;;;;;;5.43;3.20;;;;;;;-0.81;100.00;100919.25;6086198;19;20605;-71
2024/01/16 06:26:44;;;;;;;3.70;2.70;;;;;;;-0.85;100.00;100914.91;6082937;19;20006;-71
2024/01/16 06:28:49;;;;;;;4.72;2.33;;;;;;;-0.79;100.00;100917.50;6080524;19;20015;-71
2024/01/16 06:30:54;;;;;;;4.50;3.38;;;;;;;-0.77;100.00;100920.97;6082001;19;20002;-71
2024/01/16 06:33:00;;;;;;;8.35;3.30;;;;;;;-0.82;100.00;100920.94;6082786;19;20495;-71
2024/01/16 06:35:11;;;;;;;11.00;2.92;;;;;;;-0.84;100.00;100921.78;6079480;19;20550;-71
2024/01/16 06:37:16;;;;;;;4.25;3.13;;;;;;;-0.85;100.00;100925.22;6079192;19;20007;-71
2024/01/16 06:39:22;;;;;;;5.53;2.47;;;;;;;-0.83;100.00;100923.50;6082354;19;20009;-73
2024/01/16 06:41:27;;;;;;;6.85;2.55;;;;;;;-0.83;100.00;100928.69;6082961;19;20486;-72
2024/01/16 06:43:32;;;;;;;4.10;2.40;;;;;;;-0.83;100.00;100916.63;6080529;19;20355;-71
2024/01/16 06:45:37;;;;;;;2.10;1.90;;;;;;;-0.90;100.00;100915.72;6083834;19;20009;-72
2024/01/16 06:47:42;;;;;;;4.03;2.55;;;;;;;-0.84;100.00;100921.78;6083837;19;20002;-71
2024/01/16 06:49:47;;;;;;;10.10;3.88;;;;;;;-0.86;100.00;100919.19;6085304;19;20011;-71
2024/01/16 06:51:57;;;;;;;4.60;2.72;;;;;;;-0.84;100.00;100914.03;6081196;19;20015;-71
2024/01/16 06:54:01;;;;;;;7.28;2.83;;;;;;;-0.87;100.00;100917.44;6078111;19;20035;-70
2024/01/16 06:56:09;;;;;;;2.75;1.95;;;;;;;-0.90;100.00;100918.28;6083431;19;20010;-71
2024/01/16 06:58:14;;;;;;;6.03;2.75;;;;;;;-0.91;100.00;100915.72;6079510;19;20010;-72
2024/01/16 07:00:20;;;;;;;5.30;2.25;;;;;;;-0.86;100.00;100914.03;6081530;19;20013;-72
2024/01/16 07:02:26;;;;;;;4.55;2.45;;;;;;;-0.83;100.00;100918.34;6083843;19;20020;-71
2024/01/16 07:04:31;;;;;;;4.03;2.47;;;;;;;-0.84;100.00;100925.25;6080338;19;20602;-72
2024/01/16 07:06:36;;;;;;;2.33;2.10;;;;;;;-0.83;100.00;100918.34;6077678;19;20011;-71
2024/01/16 07:08:44;;;;;;;5.72;2.70;;;;;;;-0.79;100.00;100914.94;6083246;19;20017;-71
2024/01/16 07:10:48;;;;;;;6.70;2.92;;;;;;;-0.76;100.00;100920.13;6080055;19;20022;-71
2024/01/16 07:12:55;;;;;;;3.90;2.05;;;;;;;-0.71;100.00;100914.16;6075960;19;20007;-71
2024/01/16 07:15:00;;;;;;;4.57;2.15;;;;;;;-0.66;100.00;100916.75;6080894;19;20046;-71
2024/01/16 07:17:07;;;;;;;4.90;2.50;;;;;;;-0.70;100.00;100915.88;6084841;19;20021;-71
2024/01/16 07:19:13;;;;;;;3.70;2.25;;;;;;;-0.70;100.00;100925.34;6081475;19;20017;-71
2024/01/16 07:21:21;;;;;;;6.55;2.30;;;;;;;-0.69;100.00;100916.72;6077755;19;20022;-72
2024/01/16 07:23:26;;;;;;;4.22;2.40;;;;;;;-0.71;100.00;100919.31;6080518;19;20019;-72
2024/01/16 07:25:34;;;;;;;6.50;2.78;;;;;;;-0.65;100.00;100926.22;6089100;19;20567;-72
2024/01/16 07:27:42;;;;;;;5.97;2.92;;;;;;;-0.63;100.00;100932.28;6079011;19;20486;-72
2024/01/16 07:29:47;;;;;;;4.70;2.10;;;;;;;-0.64;100.00;100933.09;6086078;19;20006;-72
2024/01/16 07:31:50;;;;;;;2.33;1.98;;;;;;;-0.61;100.00;100933.13;6083149;19;20034;-73
2024/01/16 07:33:55;;;;;;;;;;;;;;;-0.60;100.00;100934.88;6088403;19;20066;-72
2024/01/16 07:35:58;;;;;;;3.53;2.58;;;;;;;-0.59;100.00;100941.75;6084840;19;20327;-72
2024/01/16 07:38:03;;;;;;;2.15;1.98;;;;;;;-0.59;100.00;100944.31;6084877;19;20110;-71
2024/01/16 07:40:12;;;;;;;4.50;3.08;;;;;;;-0.55;100.00;100938.34;6085931;19;20577;-72
2024/01/16 07:42:19;;;;;;;4.93;2.25;;;;;;;-0.53;100.00;100940.91;6083006;19;20014;-73
2024/01/16 07:44:24;;;;;;;2.30;1.98;;;;;;;-0.54;100.00;100941.78;6081342;19;20017;-75
2024/01/16 07:46:29;;;;;;;5.72;2.55;;;;;;;-0.52;100.00;100946.09;6085296;19;20041;-70
2024/01/16 07:48:34;;;;;;;3.38;2.05;;;;;;;-0.49;100.00;100945.25;6083286;19;20428;-73
2024/01/16 07:50:37;;;;;;;5.82;2.35;;;;;;;-0.48;100.00;100944.38;6082103;19;20050;-73
2024/01/16 07:52:43;;;;;;;3.10;2.33;;;;;;;-0.47;100.00;100944.41;6081435;19;20832;-71
2024/01/16 07:54:48;;;;;;;2.75;2.08;;;;;;;-0.45;100.00;100941.81;6084043;19;20026;-71
2024/01/16 07:56:53;;;;;;;4.53;2.30;;;;;;;-0.40;100.00;100947.03;6085678;19;20294;-71
2024/01/16 07:59:01;;;;;;;6.88;2.58;;;;;;;-0.39;100.00;100947.03;6072410;19;20447;-71
2024/01/16 08:01:06;;;;;;;2.75;1.50;;;;;;;-0.35;100.00;100943.59;6083386;19;20118;-71
2024/01/16 08:03:11;;;;;;;1.50;1.40;;;;;;;-0.32;100.00;100933.28;6084430;19;20006;-72
2024/01/16 08:05:16;;;;;;;1.85;1.70;;;;;;;-0.34;100.00;100937.59;6083988;19;20425;-72
2024/01/16 08:07:21;;;;;;;4.05;1.90;;;;;;;-0.33;100.00;100936.75;6085249;19;20010;-72
2024/01/16 08:09:27;;;;;;;5.40;1.60;;;;;;;-0.29;100.00;100942.78;6086472;19;20018;-71
2024/01/16 08:11:36;;;;;;;3.35;1.58;;;;;;;-0.30;100.00;100933.31;6085414;19;20031;-72
2024/01/16 08:13:39;;;;;;;6.07;1.70;;;;;;;-0.30;100.00;100933.31;6084356;19;20027;-72
2024/01/16 08:15:46;;;;;;;2.13;1.80;;;;;;;-0.29;100.00;100945.34;6086484;19;20017;-72
2024/01/16 08:17:51;;;;;;;3.05;1.55;;;;;;;-0.27;100.00;100935.91;6086269;19;20014;-71
2024/01/16 08:19:57;;;;;;;2.05;1.75;;;;;;;-0.26;100.00;100942.81;6083315;19;20023;-71
2024/01/16 08:22:02;;;;;;;2.80;1.92;;;;;;;-0.25;100.00;100945.38;6086329;19;20114;-73
2024/01/16 08:24:11;;;;;;;5.35;2.42;;;;;;;-0.17;100.00;100948.03;6087237;19;20003;-72
2024/01/16 08:26:16;;;;;;;8.20;3.20;;;;;;;-0.16;100.00;100941.97;6085549;19;20284;-70
2024/01/16 08:28:24;;;;;;;5.32;2.15;;;;;;;-0.17;100.00;100942.84;6076872;19;20007;-73
2024/01/16 08:30:29;;;;;;;3.80;2.22;;;;;;;-0.09;100.00;100942.88;6084443;19;20010;-73
2024/01/16 08:32:37;;;;;;;4.82;2.92;;;;;;;-0.05;100.00;100942.91;6085356;19;20015;-72
2024/01/16 08:34:42;;;;;;;7.13;2.72;;;;;;;-0.05;100.00;100945.50;6082936;19;20024;-73
2024/01/16 08:36:48;;;;;;;4.43;1.63;;;;;;;-0.05;100.00;100948.09;6080368;19;20006;-74
2024/01/16 08:38:50;;;;;;;2.80;2.00;;;;;;;-0.06;100.00;100948.94;6084977;19;20011;-74
2024/01/16 08:40:56;;;;;;;6.40;2.80;;;;;;;-0.05;100.00;100942.06;6083520;19;20036;-73
2024/01/16 08:43:01;;;;;;;3.20;2.45;;;;;;;-0.04;100.00;100939.47;6081293;19;20006;-71
2024/01/16 08:45:07;;;;;;;4.90;3.20;;;;;;;-0.03;100.00;100941.22;6082074;19;20010;-72
2024/01/16 08:47:12;;;;;;;3.10;2.17;;;;;;;-0.01;100.00;100944.66;6085791;19;20533;-72
2024/01/16 08:49:20;;;;;;;4.60;2.33;;;;;;;0.04;100.00;100941.22;6082552;19;20455;-73
2024/01/16 08:51:26;;;;;;;1.25;1.23;;;;;;;0.06;100.00;100944.69;6079628;19;20042;-74
2024/01/16 08:53:33;;;;;;;3.55;1.63;;;;;;;0.07;100.00;100939.50;6080874;19;20106;-73
2024/01/16 08:55:38;;;;;;;4.43;1.40;;;;;;;0.14;100.00;100935.25;6086785;19;20685;-73
2024/01/16 08:57:43;;;;;;;1.52;1.42;;;;;;;0.14;100.00;100937.84;6081939;19;20014;-73
2024/01/16 08:59:48;;;;;;;1.23;0.98;;;;;;;0.16;100.00;100941.28;6082437;19;20022;-73
2024/01/16 09:01:54;;;;;;;4.82;1.70;;;;;;;0.21;100.00;100934.38;6086258;19;20006;-73
2024/01/16 09:04:02;;;;;;;1.00;1.00;;;;;;;0.19;100.00;100936.13;6083570;19;20011;-73
2024/01/16 09:06:10;;;;;;;1.73;1.42;;;;;;;0.23;100.00;100930.09;6078962;19;20006;-72
2024/01/16 09:08:18;;;;;;;1.38;1.17;;;;;;;0.21;100.00;100937.88;6078294;19;20074;-72
2024/01/16 09:10:20;;;;;;;1.35;1.27;;;;;;;0.20;100.00;100936.13;6082255;19;20448;-73
2024/01/16 09:12:26;;;;;;;3.25;2.03;;;;;;;0.24;100.00;100929.25;6079813;19;20018;-72
2024/01/16 09:14:31;;;;;;;2.63;1.75;;;;;;;0.24;100.00;100947.34;6075483;19;20011;-72
2024/01/16 09:16:33;;;;;;;3.13;1.83;;;;;;;0.15;100.00;100944.72;6060417;19;20481;-73
2024/01/16 09:18:38;;;;;;;3.38;1.85;;;;;;;0.17;100.00;100938.69;6079474;19;20480;-73
2024/01/16 09:20:44;;;;;;;3.63;2.05;;;;;;;0.20;100.00;100945.59;6083662;19;20014;-73
2024/01/16 09:22:52;;;;;;;2.03;1.38;;;;;;;0.28;100.00;100945.63;6083154;19;20553;-73
2024/01/16 09:24:56;;;;;;;1.30;1.20;;;;;;;0.35;100.00;100939.63;6081123;19;20006;-74
2024/01/16 09:27:01;;;;;;;3.30;1.48;;;;;;;0.32;100.00;100947.38;6080712;19;20062;-70
2024/01/16 09:29:06;;;;;;;2.78;1.20;;;;;;;0.31;100.00;100946.50;6079858;19;20007;-72
2024/01/16 09:31:10;;;;;;;1.33;1.23;;;;;;;0.31;100.00;100932.72;6078480;19;20014;-70
2024/01/16 09:33:20;;;;;;;1.30;1.17;;;;;;;0.30;100.00;100938.75;6080848;19;20047;-71
2024/01/16 09:35:28;;;;;;;1.77;1.25;;;;;;;0.28;100.00;100938.72;6081093;19;20013;-71
2024/01/16 09:37:33;;;;;;;1.15;1.08;;;;;;;0.23;100.00;100945.59;6081700;19;20117;-70
2024/01/16 09:39:41;;;;;;;1.30;1.05;;;;;;;0.18;100.00;100945.56;6079745;19;20010;-71